SD State University, South Dakota
Current Conditions -  °F | °C
As of 11:35 AM on Wednesday 26 Nov 2014 (Local Time) from KMDS Reporting Station
Broken Clouds Broken Clouds  
Wind Chill: -1°   Ceiling: 600
Heat Index: 16°   Visibility: 10mi
Dew Point: 14°   Wind: 18mph
Humidity: 93%   Direction: 350°N
Pressure: 30.22"   Gusts: 23mph
Location:  44.3116°N, 96.7981°W
Report Text: KMDS 261735Z AUTO 35016G20KT 10SM BKN006 M09/M10 A3022 RMK AO2
Loading
Personal Weather Stations






























Interactive Weather Map New forecast layout! Learn more

10-Day Weather Forecast

Advertisements
Track Severe Weather on mobile